PWSweather.com
Personal Weather Stations
Station Observations
RAINMAN1
Jacksonville, FL 32224

Jacksonville, FL 32224

Lat: 30.28041649, Lon: -81.46911621

Elevation: 26

Station Type: Tycon TP1080WC

Latest ConditionsUpdated 12:20:01 PM EDT Sunday, Apr 20, 2014
Currently Today's Max Today's Min Today's Average
Temperature 62.1°F16.7°C 62.1°F16.7°C 56.1°F13.4°C 58.7°F14.8°C
Dew Point 54.8°F12.7°C 59.0°F15.0°C 53.1°F11.7°C 55.4°F13.0°C
Winds 8.2 mph N13.2 kmh N 11.0 mph E17.7 kmh E - 6.6 mph 10.6 kmh
Wind Gusts 13.0 mph20.9 kmh 19.0 mph30.6 kmh - -
Humidity 77% 93% 77% 89%
Pressure 29.79 in1008.8 mb 29.80 in1009.1 mb 29.65 in1004.1 mb -
Hour Temp Dew Point Humidity Winds Wind Gusts Pressure Precip Precip Rate Daily Precip Total
12:20 PM 62.1°F16.7°C 54.8°F12.7°C 77% 8.2 mph N13.2 kmh N 13.0 mph20.9 kmh 29.79 in1008.8 mb 0.00 in0.0 mm 0.00 in/hr0.0 mm/hr 0.00 in0.0 mm
12:15 PM 60.8°F16.0°C 54.6°F12.6°C 80% 7.2 mph N11.6 kmh N 11.4 mph18.3 kmh 29.79 in1008.8 mb 0.00 in0.0 mm 0.00 in/hr0.0 mm/hr 0.00 in0.0 mm
12:10 PM 59.9°F15.5°C 54.4°F12.4°C 82% 7.2 mph NNE11.6 kmh NNE 11.4 mph18.3 kmh 29.79 in1008.8 mb 0.00 in0.0 mm 0.00 in/hr0.0 mm/hr 0.00 in0.0 mm
12:05 PM 59.9°F15.5°C 54.1°F12.3°C 81% 8.4 mph NNE13.5 kmh NNE 11.4 mph18.3 kmh 29.80 in1009.1 mb 0.00 in0.0 mm 0.00 in/hr0.0 mm/hr 0.00 in0.0 mm
12:00 PM 60.3°F15.7°C 54.1°F12.3°C 80% 8.3 mph NNE13.4 kmh NNE 10.7 mph17.2 kmh 29.80 in1009.1 mb 0.00 in0.0 mm 0.00 in/hr0.0 mm/hr 0.00 in0.0 mm
11:55 AM 60.4°F15.8°C 54.3°F12.4°C 80% 8.9 mph N14.3 kmh N 10.7 mph17.2 kmh 29.79 in1008.8 mb 0.00 in0.0 mm 0.00 in/hr0.0 mm/hr 0.00 in0.0 mm
11:50 AM 60.6°F15.9°C 54.1°F12.3°C 79% 9.8 mph N15.8 kmh N 11.4 mph18.3 kmh 29.80 in1009.1 mb 0.00 in0.0 mm 0.00 in/hr0.0 mm/hr 0.00 in0.0 mm
11:45 AM 60.6°F15.9°C 54.1°F12.3°C 79% 8.5 mph NNE13.7 kmh NNE 11.4 mph18.3 kmh 29.79 in1008.8 mb 0.00 in0.0 mm 0.00 in/hr0.0 mm/hr 0.00 in0.0 mm
11:40 AM 61.0°F16.1°C 54.4°F12.4°C 79% 7.3 mph NNE11.7 kmh NNE 9.8 mph15.8 kmh 29.79 in1008.8 mb 0.00 in0.0 mm 0.00 in/hr0.0 mm/hr 0.00 in0.0 mm
11:35 AM 61.3°F16.3°C 54.8°F12.7°C 79% 7.7 mph NNE12.4 kmh NNE 10.7 mph17.2 kmh 29.80 in1009.1 mb 0.00 in0.0 mm 0.00 in/hr0.0 mm/hr 0.00 in0.0 mm
11:30 AM 61.2°F16.2°C 55.0°F12.8°C 80% 7.4 mph NE11.9 kmh NE 10.7 mph17.2 kmh 29.79 in1008.8 mb 0.00 in0.0 mm 0.00 in/hr0.0 mm/hr 0.00 in0.0 mm
11:25 AM 60.8°F16.0°C 54.9°F12.7°C 81% 6.1 mph N9.8 kmh N 8.3 mph13.4 kmh 29.79 in1008.8 mb 0.00 in0.0 mm 0.00 in/hr0.0 mm/hr 0.00 in0.0 mm
11:20 AM 59.9°F15.5°C 55.1°F12.8°C 84% 6.0 mph N9.7 kmh N 8.3 mph13.4 kmh 29.79 in1008.8 mb 0.00 in0.0 mm 0.00 in/hr0.0 mm/hr 0.00 in0.0 mm
11:15 AM 59.7°F15.4°C 55.5°F13.1°C 86% 6.0 mph N9.7 kmh N 8.3 mph13.4 kmh 29.79 in1008.8 mb 0.00 in0.0 mm 0.00 in/hr0.0 mm/hr 0.00 in0.0 mm
11:10 AM 59.5°F15.3°C 55.4°F13.0°C 86% 5.4 mph N8.7 kmh N 8.3 mph13.4 kmh 29.79 in1008.8 mb 0.00 in0.0 mm 0.00 in/hr0.0 mm/hr 0.00 in0.0 mm
11:05 AM 59.4°F15.2°C 55.8°F13.2°C 88% 5.7 mph NNE9.2 kmh NNE 9.2 mph14.8 kmh 29.79 in1008.8 mb 0.00 in0.0 mm 0.00 in/hr0.0 mm/hr 0.00 in0.0 mm
11:00 AM 59.2°F15.1°C 55.6°F13.1°C 88% 5.6 mph N9.0 kmh N 9.2 mph14.8 kmh 29.79 in1008.8 mb 0.00 in0.0 mm 0.00 in/hr0.0 mm/hr 0.00 in0.0 mm
10:55 AM 58.8°F14.9°C 55.3°F12.9°C 88% 5.2 mph WNW8.4 kmh WNW 6.0 mph9.7 kmh 29.79 in1008.8 mb 0.00 in0.0 mm 0.00 in/hr0.0 mm/hr 0.00 in0.0 mm
10:50 AM 58.5°F14.7°C 54.9°F12.7°C 88% 5.6 mph WNW9.0 kmh WNW 6.9 mph11.1 kmh 29.79 in1008.8 mb 0.00 in0.0 mm 0.00 in/hr0.0 mm/hr 0.00 in0.0 mm
10:45 AM 58.5°F14.7°C 54.9°F12.7°C 88% 6.6 mph NW10.6 kmh NW 11.4 mph18.3 kmh 29.79 in1008.8 mb 0.00 in0.0 mm 0.00 in/hr0.0 mm/hr 0.00 in0.0 mm
10:40 AM 58.8°F14.9°C 54.7°F12.6°C 86% 5.6 mph NNW9.0 kmh NNW 11.4 mph18.3 kmh 29.79 in1008.8 mb 0.00 in0.0 mm 0.00 in/hr0.0 mm/hr 0.00 in0.0 mm
10:35 AM 59.2°F15.1°C 55.0°F12.8°C 86% 3.9 mph N6.3 kmh N 6.0 mph9.7 kmh 29.79 in1008.8 mb 0.00 in0.0 mm 0.00 in/hr0.0 mm/hr 0.00 in0.0 mm
10:30 AM 58.8°F14.9°C 54.7°F12.6°C 86% 5.5 mph NW8.9 kmh NW 8.3 mph13.4 kmh 29.79 in1008.8 mb 0.00 in0.0 mm 0.00 in/hr0.0 mm/hr 0.00 in0.0 mm
10:25 AM 58.3°F14.6°C 54.1°F12.3°C 86% 7.0 mph NW11.3 kmh NW 8.3 mph13.4 kmh 29.79 in1008.8 mb 0.00 in0.0 mm 0.00 in/hr0.0 mm/hr 0.00 in0.0 mm
10:20 AM 58.1°F14.5°C 53.9°F12.2°C 86% 7.0 mph N11.3 kmh N 8.3 mph13.4 kmh 29.78 in1008.5 mb 0.00 in0.0 mm 0.00 in/hr0.0 mm/hr 0.00 in0.0 mm
10:15 AM 57.9°F14.4°C 54.1°F12.3°C 87% 6.1 mph N9.8 kmh N 8.3 mph13.4 kmh 29.78 in1008.5 mb 0.00 in0.0 mm 0.00 in/hr0.0 mm/hr 0.00 in0.0 mm
10:10 AM 57.7°F14.3°C 53.9°F12.2°C 87% 4.8 mph N7.7 kmh N 8.3 mph13.4 kmh 29.78 in1008.5 mb 0.00 in0.0 mm 0.00 in/hr0.0 mm/hr 0.00 in0.0 mm
10:05 AM 57.7°F14.3°C 54.2°F12.3°C 88% 4.2 mph N6.8 kmh N 5.4 mph8.7 kmh 29.77 in1008.1 mb 0.00 in0.0 mm 0.00 in/hr0.0 mm/hr 0.00 in0.0 mm
10:00 AM 57.4°F14.1°C 53.9°F12.2°C 88% 4.2 mph NNW6.8 kmh NNW 6.0 mph9.7 kmh 29.78 in1008.5 mb 0.00 in0.0 mm 0.00 in/hr0.0 mm/hr 0.00 in0.0 mm
09:55 AM 57.4°F14.1°C 53.9°F12.2°C 88% 4.0 mph NNW6.4 kmh NNW 6.0 mph9.7 kmh 29.78 in1008.5 mb 0.00 in0.0 mm 0.00 in/hr0.0 mm/hr 0.00 in0.0 mm
09:50 AM 57.2°F14.0°C 54.0°F12.2°C 89% 4.9 mph N7.9 kmh N 9.2 mph14.8 kmh 29.77 in1008.1 mb 0.00 in0.0 mm 0.00 in/hr0.0 mm/hr 0.00 in0.0 mm
09:45 AM 57.2°F14.0°C 54.0°F12.2°C 89% 5.3 mph N8.5 kmh N 9.2 mph14.8 kmh 29.78 in1008.5 mb 0.00 in0.0 mm 0.00 in/hr0.0 mm/hr 0.00 in0.0 mm
09:40 AM 57.2°F14.0°C 54.0°F12.2°C 89% 4.8 mph N7.7 kmh N 7.6 mph12.2 kmh 29.77 in1008.1 mb 0.00 in0.0 mm 0.00 in/hr0.0 mm/hr 0.00 in0.0 mm
09:35 AM 57.0°F13.9°C 53.8°F12.1°C 89% 5.0 mph N8.0 kmh N 7.6 mph12.2 kmh 29.77 in1008.1 mb 0.00 in0.0 mm 0.00 in/hr0.0 mm/hr 0.00 in0.0 mm
09:30 AM 57.0°F13.9°C 53.8°F12.1°C 89% 5.0 mph NNW8.0 kmh NNW 7.6 mph12.2 kmh 29.77 in1008.1 mb 0.00 in0.0 mm 0.00 in/hr0.0 mm/hr 0.00 in0.0 mm
09:25 AM 56.8°F13.8°C 53.9°F12.2°C 90% 5.3 mph N8.5 kmh N 9.8 mph15.8 kmh 29.76 in1007.8 mb 0.00 in0.0 mm 0.00 in/hr0.0 mm/hr 0.00 in0.0 mm
09:20 AM 57.0°F13.9°C 54.1°F12.3°C 90% 5.5 mph N8.9 kmh N 9.8 mph15.8 kmh 29.76 in1007.8 mb 0.00 in0.0 mm 0.00 in/hr0.0 mm/hr 0.00 in0.0 mm
09:15 AM 56.7°F13.7°C 53.8°F12.1°C 90% 4.7 mph NW7.6 kmh NW 7.6 mph12.2 kmh 29.76 in1007.8 mb 0.00 in0.0 mm 0.00 in/hr0.0 mm/hr 0.00 in0.0 mm
09:10 AM 56.7°F13.7°C 54.1°F12.3°C 91% 4.7 mph NNW7.6 kmh NNW 6.0 mph9.7 kmh 29.76 in1007.8 mb 0.00 in0.0 mm 0.00 in/hr0.0 mm/hr 0.00 in0.0 mm
09:05 AM 56.7°F13.7°C 53.8°F12.1°C 90% 5.0 mph N8.0 kmh N 6.0 mph9.7 kmh 29.76 in1007.8 mb 0.00 in0.0 mm 0.00 in/hr0.0 mm/hr 0.00 in0.0 mm
09:00 AM 56.7°F13.7°C 53.8°F12.1°C 90% 5.5 mph NW8.9 kmh NW 8.3 mph13.4 kmh 29.75 in1007.5 mb 0.00 in0.0 mm 0.00 in/hr0.0 mm/hr 0.00 in0.0 mm
08:55 AM 56.7°F13.7°C 53.8°F12.1°C 90% 5.2 mph NW8.4 kmh NW 8.3 mph13.4 kmh 29.75 in1007.5 mb 0.00 in0.0 mm 0.00 in/hr0.0 mm/hr 0.00 in0.0 mm
08:50 AM 56.8°F13.8°C 53.6°F12.0°C 89% 3.9 mph NNW6.3 kmh NNW 8.3 mph13.4 kmh 29.75 in1007.5 mb 0.00 in0.0 mm 0.00 in/hr0.0 mm/hr 0.00 in0.0 mm
08:45 AM 56.8°F13.8°C 53.9°F12.2°C 90% 3.8 mph N6.1 kmh N 6.0 mph9.7 kmh 29.75 in1007.5 mb 0.00 in0.0 mm 0.00 in/hr0.0 mm/hr 0.00 in0.0 mm
08:40 AM 56.5°F13.6°C 53.3°F11.8°C 89% 4.4 mph N7.1 kmh N 7.6 mph12.2 kmh 29.75 in1007.5 mb 0.00 in0.0 mm 0.00 in/hr0.0 mm/hr 0.00 in0.0 mm
08:35 AM 56.8°F13.8°C 53.6°F12.0°C 89% 4.9 mph NNE7.9 kmh NNE 7.6 mph12.2 kmh 29.75 in1007.5 mb 0.00 in0.0 mm 0.00 in/hr0.0 mm/hr 0.00 in0.0 mm
08:30 AM 56.5°F13.6°C 53.3°F11.8°C 89% 5.4 mph NNE8.7 kmh NNE 9.2 mph14.8 kmh 29.75 in1007.5 mb 0.00 in0.0 mm 0.00 in/hr0.0 mm/hr 0.00 in0.0 mm
08:25 AM 56.7°F13.7°C 53.5°F11.9°C 89% 5.3 mph NNE8.5 kmh NNE 9.2 mph14.8 kmh 29.75 in1007.5 mb 0.00 in0.0 mm 0.00 in/hr0.0 mm/hr 0.00 in0.0 mm
08:20 AM 56.3°F13.5°C 53.1°F11.7°C 89% 5.4 mph N8.7 kmh N 9.2 mph14.8 kmh 29.75 in1007.5 mb 0.00 in0.0 mm 0.00 in/hr0.0 mm/hr 0.00 in0.0 mm
08:15 AM 56.3°F13.5°C 53.1°F11.7°C 89% 5.7 mph N9.2 kmh N 9.2 mph14.8 kmh 29.75 in1007.5 mb 0.00 in0.0 mm 0.00 in/hr0.0 mm/hr 0.00 in0.0 mm
08:10 AM 56.3°F13.5°C 53.1°F11.7°C 89% 4.2 mph N6.8 kmh N 8.3 mph13.4 kmh 29.75 in1007.5 mb 0.00 in0.0 mm 0.00 in/hr0.0 mm/hr 0.00 in0.0 mm
08:05 AM 56.3°F13.5°C 53.4°F11.9°C 90% 4.4 mph N7.1 kmh N 7.6 mph12.2 kmh 29.74 in1007.1 mb 0.00 in0.0 mm 0.00 in/hr0.0 mm/hr 0.00 in0.0 mm
08:00 AM 56.3°F13.5°C 53.4°F11.9°C 90% 5.5 mph NNW8.9 kmh NNW 7.6 mph12.2 kmh 29.74 in1007.1 mb 0.00 in0.0 mm 0.00 in/hr0.0 mm/hr 0.00 in0.0 mm
07:55 AM 56.1°F13.4°C 53.2°F11.8°C 90% 6.7 mph NW10.8 kmh NW 13.0 mph20.9 kmh 29.73 in1006.8 mb 0.00 in0.0 mm 0.00 in/hr0.0 mm/hr 0.00 in0.0 mm
07:50 AM 56.3°F13.5°C 53.4°F11.9°C 90% 7.1 mph NW11.4 kmh NW 13.0 mph20.9 kmh 29.73 in1006.8 mb 0.00 in0.0 mm 0.00 in/hr0.0 mm/hr 0.00 in0.0 mm
07:45 AM 56.1°F13.4°C 53.2°F11.8°C 90% 6.7 mph NW10.8 kmh NW 9.2 mph14.8 kmh 29.74 in1007.1 mb 0.00 in0.0 mm 0.00 in/hr0.0 mm/hr 0.00 in0.0 mm
07:40 AM 56.3°F13.5°C 53.4°F11.9°C 90% 6.9 mph NNW11.1 kmh NNW 9.2 mph14.8 kmh 29.73 in1006.8 mb 0.00 in0.0 mm 0.00 in/hr0.0 mm/hr 0.00 in0.0 mm
07:35 AM 56.3°F13.5°C 53.4°F11.9°C 90% 6.5 mph N10.5 kmh N 9.2 mph14.8 kmh 29.73 in1006.8 mb 0.00 in0.0 mm 0.00 in/hr0.0 mm/hr 0.00 in0.0 mm
07:30 AM 56.5°F13.6°C 53.3°F11.8°C 89% 6.4 mph N10.3 kmh N 8.3 mph13.4 kmh 29.73 in1006.8 mb 0.00 in0.0 mm 0.00 in/hr0.0 mm/hr 0.00 in0.0 mm
07:25 AM 56.5°F13.6°C 53.3°F11.8°C 89% 7.4 mph N11.9 kmh N 11.4 mph18.3 kmh 29.73 in1006.8 mb 0.00 in0.0 mm 0.00 in/hr0.0 mm/hr 0.00 in0.0 mm
07:20 AM 56.5°F13.6°C 53.3°F11.8°C 89% 8.5 mph N13.7 kmh N 11.4 mph18.3 kmh 29.73 in1006.8 mb 0.00 in0.0 mm 0.00 in/hr0.0 mm/hr 0.00 in0.0 mm
07:15 AM 56.5°F13.6°C 53.6°F12.0°C 90% 7.2 mph N11.6 kmh N 10.7 mph17.2 kmh 29.73 in1006.8 mb 0.00 in0.0 mm 0.00 in/hr0.0 mm/hr 0.00 in0.0 mm
07:10 AM 56.5°F13.6°C 53.6°F12.0°C 90% 4.9 mph N7.9 kmh N 9.8 mph15.8 kmh 29.72 in1006.4 mb 0.00 in0.0 mm 0.00 in/hr0.0 mm/hr 0.00 in0.0 mm
07:05 AM 56.7°F13.7°C 54.1°F12.3°C 91% 4.2 mph N6.8 kmh N 9.8 mph15.8 kmh 29.73 in1006.8 mb 0.00 in0.0 mm 0.00 in/hr0.0 mm/hr 0.00 in0.0 mm
07:00 AM 56.7°F13.7°C 54.1°F12.3°C 91% 5.6 mph N9.0 kmh N 9.8 mph15.8 kmh 29.72 in1006.4 mb 0.00 in0.0 mm 0.00 in/hr0.0 mm/hr 0.00 in0.0 mm
06:55 AM 56.7°F13.7°C 53.8°F12.1°C 90% 7.8 mph N12.6 kmh N 13.6 mph21.9 kmh 29.72 in1006.4 mb 0.00 in0.0 mm 0.00 in/hr0.0 mm/hr 0.00 in0.0 mm
06:50 AM 56.8°F13.8°C 53.9°F12.2°C 90% 7.7 mph NNW12.4 kmh NNW 13.6 mph21.9 kmh 29.72 in1006.4 mb 0.00 in0.0 mm 0.00 in/hr0.0 mm/hr 0.00 in0.0 mm
06:45 AM 57.4°F14.1°C 54.2°F12.3°C 89% 6.3 mph N10.1 kmh N 9.2 mph14.8 kmh 29.72 in1006.4 mb 0.00 in0.0 mm 0.00 in/hr0.0 mm/hr 0.00 in0.0 mm
06:40 AM 57.6°F14.2°C 54.4°F12.4°C 89% 5.3 mph NNE8.5 kmh NNE 8.3 mph13.4 kmh 29.71 in1006.1 mb 0.00 in0.0 mm 0.00 in/hr0.0 mm/hr 0.00 in0.0 mm
06:35 AM 57.6°F14.2°C 54.4°F12.4°C 89% 6.3 mph N10.1 kmh N 9.2 mph14.8 kmh 29.70 in1005.8 mb 0.00 in0.0 mm 0.00 in/hr0.0 mm/hr 0.00 in0.0 mm
06:30 AM 57.6°F14.2°C 54.4°F12.4°C 89% 7.4 mph N11.9 kmh N 9.2 mph14.8 kmh 29.70 in1005.8 mb 0.00 in0.0 mm 0.00 in/hr0.0 mm/hr 0.00 in0.0 mm
06:25 AM 57.6°F14.2°C 54.4°F12.4°C 89% 8.2 mph NNE13.2 kmh NNE 13.6 mph21.9 kmh 29.70 in1005.8 mb 0.00 in0.0 mm 0.00 in/hr0.0 mm/hr 0.00 in0.0 mm
06:20 AM 57.7°F14.3°C 54.5°F12.5°C 89% 7.4 mph NNE11.9 kmh NNE 13.6 mph21.9 kmh 29.70 in1005.8 mb 0.00 in0.0 mm 0.00 in/hr0.0 mm/hr 0.00 in0.0 mm
06:15 AM 57.9°F14.4°C 54.4°F12.4°C 88% 5.5 mph N8.9 kmh N 9.2 mph14.8 kmh 29.70 in1005.8 mb 0.00 in0.0 mm 0.00 in/hr0.0 mm/hr 0.00 in0.0 mm
06:10 AM 57.9°F14.4°C 54.4°F12.4°C 88% 6.5 mph NE10.5 kmh NE 6.9 mph11.1 kmh 29.69 in1005.4 mb 0.00 in0.0 mm 0.00 in/hr0.0 mm/hr 0.00 in0.0 mm
06:05 AM 58.1°F14.5°C 54.9°F12.7°C 89% 7.0 mph NNE11.3 kmh NNE 8.3 mph13.4 kmh 29.69 in1005.4 mb 0.00 in0.0 mm 0.00 in/hr0.0 mm/hr 0.00 in0.0 mm
06:00 AM 58.1°F14.5°C 54.9°F12.7°C 89% 6.8 mph N10.9 kmh N 8.3 mph13.4 kmh 29.69 in1005.4 mb 0.00 in0.0 mm 0.00 in/hr0.0 mm/hr 0.00 in0.0 mm
05:55 AM 58.3°F14.6°C 55.1°F12.8°C 89% 7.6 mph N12.2 kmh N 10.7 mph17.2 kmh 29.69 in1005.4 mb 0.00 in0.0 mm 0.00 in/hr0.0 mm/hr 0.00 in0.0 mm
05:50 AM 58.5°F14.7°C 55.2°F12.9°C 89% 8.6 mph NNE13.8 kmh NNE 13.0 mph20.9 kmh 29.68 in1005.1 mb 0.00 in0.0 mm 0.00 in/hr0.0 mm/hr 0.00 in0.0 mm
05:45 AM 58.3°F14.6°C 55.1°F12.8°C 89% 8.1 mph N13.0 kmh N 13.0 mph20.9 kmh 29.68 in1005.1 mb 0.00 in0.0 mm 0.00 in/hr0.0 mm/hr 0.00 in0.0 mm
05:40 AM 58.6°F14.8°C 55.4°F13.0°C 89% 7.5 mph N12.1 kmh N 10.7 mph17.2 kmh 29.68 in1005.1 mb 0.00 in0.0 mm 0.00 in/hr0.0 mm/hr 0.00 in0.0 mm
05:35 AM 58.8°F14.9°C 55.3°F12.9°C 88% 7.2 mph N11.6 kmh N 13.0 mph20.9 kmh 29.68 in1005.1 mb 0.00 in0.0 mm 0.00 in/hr0.0 mm/hr 0.00 in0.0 mm
05:30 AM 58.8°F14.9°C 55.3°F12.9°C 88% 6.6 mph N10.6 kmh N 13.0 mph20.9 kmh 29.68 in1005.1 mb 0.00 in0.0 mm 0.00 in/hr0.0 mm/hr 0.00 in0.0 mm
05:25 AM 59.0°F15.0°C 55.5°F13.1°C 88% 6.6 mph N10.6 kmh N 9.2 mph14.8 kmh 29.68 in1005.1 mb 0.00 in0.0 mm 0.00 in/hr0.0 mm/hr 0.00 in0.0 mm
05:20 AM 59.0°F15.0°C 55.5°F13.1°C 88% 9.1 mph N14.6 kmh N 15.9 mph25.6 kmh 29.68 in1005.1 mb 0.00 in0.0 mm 0.00 in/hr0.0 mm/hr 0.00 in0.0 mm
05:15 AM 59.2°F15.1°C 55.3°F12.9°C 87% 10.5 mph NNE16.9 kmh NNE 15.9 mph25.6 kmh 29.68 in1005.1 mb 0.00 in0.0 mm 0.00 in/hr0.0 mm/hr 0.00 in0.0 mm
05:10 AM 59.2°F15.1°C 55.3°F12.9°C 87% 11.0 mph E17.7 kmh E 15.9 mph25.6 kmh 29.67 in1004.7 mb 0.00 in0.0 mm 0.00 in/hr0.0 mm/hr 0.00 in0.0 mm
05:05 AM 59.4°F15.2°C 55.8°F13.2°C 88% 10.1 mph ENE16.3 kmh ENE 12.1 mph19.5 kmh 29.67 in1004.7 mb 0.00 in0.0 mm 0.00 in/hr0.0 mm/hr 0.00 in0.0 mm
05:00 AM 59.4°F15.2°C 55.8°F13.2°C 88% 7.6 mph NNE12.2 kmh NNE 12.1 mph19.5 kmh 29.67 in1004.7 mb 0.00 in0.0 mm 0.00 in/hr0.0 mm/hr 0.00 in0.0 mm
04:55 AM 59.4°F15.2°C 55.8°F13.2°C 88% 8.3 mph N13.4 kmh N 16.8 mph27.0 kmh 29.66 in1004.4 mb 0.00 in0.0 mm 0.00 in/hr0.0 mm/hr 0.00 in0.0 mm
04:50 AM 59.4°F15.2°C 55.8°F13.2°C 88% 9.1 mph NNE14.6 kmh NNE 16.8 mph27.0 kmh 29.66 in1004.4 mb 0.00 in0.0 mm 0.00 in/hr0.0 mm/hr 0.00 in0.0 mm
04:45 AM 59.4°F15.2°C 55.8°F13.2°C 88% 9.0 mph NNE14.5 kmh NNE 14.5 mph23.3 kmh 29.66 in1004.4 mb 0.00 in0.0 mm 0.00 in/hr0.0 mm/hr 0.00 in0.0 mm
04:40 AM 59.4°F15.2°C 55.8°F13.2°C 88% 10.4 mph NE16.7 kmh NE 19.0 mph30.6 kmh 29.67 in1004.7 mb 0.00 in0.0 mm 0.00 in/hr0.0 mm/hr 0.00 in0.0 mm
04:35 AM 59.5°F15.3°C 56.0°F13.3°C 88% 10.3 mph NE16.6 kmh NE 19.0 mph30.6 kmh 29.66 in1004.4 mb 0.00 in0.0 mm 0.00 in/hr0.0 mm/hr 0.00 in0.0 mm
04:30 AM 59.7°F15.4°C 56.2°F13.4°C 88% 9.6 mph NE15.4 kmh NE 14.5 mph23.3 kmh 29.67 in1004.7 mb 0.00 in0.0 mm 0.00 in/hr0.0 mm/hr 0.00 in0.0 mm
04:25 AM 59.5°F15.3°C 56.0°F13.3°C 88% 9.2 mph NNE14.8 kmh NNE 13.6 mph21.9 kmh 29.66 in1004.4 mb 0.00 in0.0 mm 0.00 in/hr0.0 mm/hr 0.00 in0.0 mm
04:20 AM 59.7°F15.4°C 56.2°F13.4°C 88% 9.0 mph NNE14.5 kmh NNE 13.6 mph21.9 kmh 29.66 in1004.4 mb 0.00 in0.0 mm 0.00 in/hr0.0 mm/hr 0.00 in0.0 mm
04:15 AM 59.7°F15.4°C 56.2°F13.4°C 88% 9.7 mph NNE15.6 kmh NNE 13.0 mph20.9 kmh 29.66 in1004.4 mb 0.00 in0.0 mm 0.00 in/hr0.0 mm/hr 0.00 in0.0 mm
04:10 AM 59.9°F15.5°C 56.7°F13.7°C 89% 10.6 mph NE17.1 kmh NE 12.1 mph19.5 kmh 29.67 in1004.7 mb 0.00 in0.0 mm 0.00 in/hr0.0 mm/hr 0.00 in0.0 mm
04:05 AM 59.4°F15.2°C 56.4°F13.6°C 90% 8.5 mph NE13.7 kmh NE 11.4 mph18.3 kmh 29.66 in1004.4 mb 0.00 in0.0 mm 0.00 in/hr0.0 mm/hr 0.00 in0.0 mm
04:00 AM 59.4°F15.2°C 56.4°F13.6°C 90% 5.9 mph NNE9.5 kmh NNE 11.4 mph18.3 kmh 29.66 in1004.4 mb 0.00 in0.0 mm 0.00 in/hr0.0 mm/hr 0.00 in0.0 mm
03:55 AM 59.4°F15.2°C 56.4°F13.6°C 90% 6.4 mph N10.3 kmh N 9.2 mph14.8 kmh 29.67 in1004.7 mb 0.00 in0.0 mm 0.00 in/hr0.0 mm/hr 0.00 in0.0 mm
03:50 AM 59.4°F15.2°C 56.4°F13.6°C 90% 6.6 mph N10.6 kmh N 12.1 mph19.5 kmh 29.67 in1004.7 mb 0.00 in0.0 mm 0.00 in/hr0.0 mm/hr 0.00 in0.0 mm
03:45 AM 59.4°F15.2°C 56.4°F13.6°C 90% 6.0 mph N9.7 kmh N 12.1 mph19.5 kmh 29.66 in1004.4 mb 0.00 in0.0 mm 0.00 in/hr0.0 mm/hr 0.00 in0.0 mm
03:40 AM 59.2°F15.1°C 56.6°F13.7°C 91% 6.0 mph NNE9.7 kmh NNE 8.3 mph13.4 kmh 29.67 in1004.7 mb 0.00 in0.0 mm 0.00 in/hr0.0 mm/hr 0.00 in0.0 mm
03:35 AM 59.4°F15.2°C 56.7°F13.7°C 91% 5.7 mph N9.2 kmh N 9.2 mph14.8 kmh 29.67 in1004.7 mb 0.00 in0.0 mm 0.00 in/hr0.0 mm/hr 0.00 in0.0 mm
03:30 AM 59.5°F15.3°C 56.9°F13.8°C 91% 5.7 mph NNW9.2 kmh NNW 9.2 mph14.8 kmh 29.66 in1004.4 mb 0.00 in0.0 mm 0.00 in/hr0.0 mm/hr 0.00 in0.0 mm
03:25 AM 59.4°F15.2°C 56.7°F13.7°C 91% 6.4 mph NNW10.3 kmh NNW 9.2 mph14.8 kmh 29.67 in1004.7 mb 0.00 in0.0 mm 0.00 in/hr0.0 mm/hr 0.00 in0.0 mm
03:20 AM 59.4°F15.2°C 56.7°F13.7°C 91% 5.9 mph N9.5 kmh N 9.2 mph14.8 kmh 29.67 in1004.7 mb 0.00 in0.0 mm 0.00 in/hr0.0 mm/hr 0.00 in0.0 mm
03:15 AM 59.2°F15.1°C 56.6°F13.7°C 91% 5.1 mph NNE8.2 kmh NNE 9.2 mph14.8 kmh 29.67 in1004.7 mb 0.00 in0.0 mm 0.00 in/hr0.0 mm/hr 0.00 in0.0 mm
03:10 AM 59.0°F15.0°C 56.4°F13.6°C 91% 4.0 mph NE6.4 kmh NE 8.3 mph13.4 kmh 29.67 in1004.7 mb 0.00 in0.0 mm 0.00 in/hr0.0 mm/hr 0.00 in0.0 mm
03:05 AM 59.0°F15.0°C 56.4°F13.6°C 91% 4.3 mph NNE6.9 kmh NNE 8.3 mph13.4 kmh 29.67 in1004.7 mb 0.00 in0.0 mm 0.00 in/hr0.0 mm/hr 0.00 in0.0 mm
03:00 AM 59.0°F15.0°C 56.4°F13.6°C 91% 4.9 mph N7.9 kmh N 8.3 mph13.4 kmh 29.66 in1004.4 mb 0.00 in0.0 mm 0.00 in/hr0.0 mm/hr 0.00 in0.0 mm
02:55 AM 59.0°F15.0°C 56.4°F13.6°C 91% 5.6 mph N9.0 kmh N 11.4 mph18.3 kmh 29.66 in1004.4 mb 0.00 in0.0 mm 0.00 in/hr0.0 mm/hr 0.00 in0.0 mm
02:50 AM 59.2°F15.1°C 56.6°F13.7°C 91% 6.8 mph NNW10.9 kmh NNW 11.4 mph18.3 kmh 29.66 in1004.4 mb 0.00 in0.0 mm 0.00 in/hr0.0 mm/hr 0.00 in0.0 mm
02:45 AM 59.0°F15.0°C 56.4°F13.6°C 91% 6.2 mph N10.0 kmh N 11.4 mph18.3 kmh 29.65 in1004.1 mb 0.00 in0.0 mm 0.00 in/hr0.0 mm/hr 0.00 in0.0 mm
02:40 AM 59.0°F15.0°C 56.7°F13.7°C 92% 5.5 mph NE8.9 kmh NE 9.2 mph14.8 kmh 29.66 in1004.4 mb 0.00 in0.0 mm 0.00 in/hr0.0 mm/hr 0.00 in0.0 mm
02:35 AM 58.8°F14.9°C 56.2°F13.4°C 91% 6.3 mph N10.1 kmh N 10.7 mph17.2 kmh 29.67 in1004.7 mb 0.00 in0.0 mm 0.00 in/hr0.0 mm/hr 0.00 in0.0 mm
02:30 AM 59.0°F15.0°C 56.4°F13.6°C 91% 6.4 mph N10.3 kmh N 10.7 mph17.2 kmh 29.66 in1004.4 mb 0.00 in0.0 mm 0.00 in/hr0.0 mm/hr 0.00 in0.0 mm
02:25 AM 58.8°F14.9°C 56.2°F13.4°C 91% 5.8 mph N9.3 kmh N 9.2 mph14.8 kmh 29.66 in1004.4 mb 0.00 in0.0 mm 0.00 in/hr0.0 mm/hr 0.00 in0.0 mm
02:20 AM 59.0°F15.0°C 56.4°F13.6°C 91% 6.7 mph NE10.8 kmh NE 11.4 mph18.3 kmh 29.66 in1004.4 mb 0.00 in0.0 mm 0.00 in/hr0.0 mm/hr 0.00 in0.0 mm
02:15 AM 59.2°F15.1°C 56.3°F13.5°C 90% 7.7 mph NE12.4 kmh NE 11.4 mph18.3 kmh 29.67 in1004.7 mb 0.00 in0.0 mm 0.00 in/hr0.0 mm/hr 0.00 in0.0 mm
02:10 AM 59.4°F15.2°C 56.4°F13.6°C 90% 8.4 mph NE13.5 kmh NE 10.7 mph17.2 kmh 29.67 in1004.7 mb 0.00 in0.0 mm 0.00 in/hr0.0 mm/hr 0.00 in0.0 mm
02:05 AM 59.7°F15.4°C 56.5°F13.6°C 89% 7.7 mph ENE12.4 kmh ENE 9.8 mph15.8 kmh 29.68 in1005.1 mb 0.00 in0.0 mm 0.00 in/hr0.0 mm/hr 0.00 in0.0 mm
02:00 AM 59.7°F15.4°C 56.5°F13.6°C 89% 7.0 mph NE11.3 kmh NE 10.7 mph17.2 kmh 29.68 in1005.1 mb 0.00 in0.0 mm 0.00 in/hr0.0 mm/hr 0.00 in0.0 mm
01:55 AM 59.7°F15.4°C 56.8°F13.8°C 90% 8.0 mph NNE12.9 kmh NNE 15.9 mph25.6 kmh 29.68 in1005.1 mb 0.00 in0.0 mm 0.00 in/hr0.0 mm/hr 0.00 in0.0 mm
01:50 AM 59.9°F15.5°C 57.0°F13.9°C 90% 7.8 mph N12.6 kmh N 15.9 mph25.6 kmh 29.68 in1005.1 mb 0.00 in0.0 mm 0.00 in/hr0.0 mm/hr 0.00 in0.0 mm
01:45 AM 60.1°F15.6°C 57.2°F14.0°C 90% 7.6 mph N12.2 kmh N 12.1 mph19.5 kmh 29.68 in1005.1 mb 0.00 in0.0 mm 0.00 in/hr0.0 mm/hr 0.00 in0.0 mm
01:40 AM 60.3°F15.7°C 57.3°F14.1°C 90% 8.2 mph NNW13.2 kmh NNW 12.1 mph19.5 kmh 29.68 in1005.1 mb 0.00 in0.0 mm 0.00 in/hr0.0 mm/hr 0.00 in0.0 mm
01:35 AM 60.4°F15.8°C 57.5°F14.2°C 90% 8.7 mph N14.0 kmh N 15.2 mph24.5 kmh 29.68 in1005.1 mb 0.00 in0.0 mm 0.00 in/hr0.0 mm/hr 0.00 in0.0 mm
01:30 AM 60.4°F15.8°C 57.5°F14.2°C 90% 7.7 mph NNE12.4 kmh NNE 15.2 mph24.5 kmh 29.68 in1005.1 mb 0.00 in0.0 mm 0.00 in/hr0.0 mm/hr 0.00 in0.0 mm
01:25 AM 60.4°F15.8°C 57.8°F14.3°C 91% 5.4 mph NNE8.7 kmh NNE 9.2 mph14.8 kmh 29.68 in1005.1 mb 0.00 in0.0 mm 0.00 in/hr0.0 mm/hr 0.00 in0.0 mm
01:20 AM 60.6°F15.9°C 58.0°F14.4°C 91% 5.1 mph N8.2 kmh N 9.2 mph14.8 kmh 29.68 in1005.1 mb 0.00 in0.0 mm 0.00 in/hr0.0 mm/hr 0.00 in0.0 mm
01:15 AM 60.6°F15.9°C 58.0°F14.4°C 91% 5.5 mph NNW8.9 kmh NNW 12.1 mph19.5 kmh 29.68 in1005.1 mb 0.00 in0.0 mm 0.00 in/hr0.0 mm/hr 0.00 in0.0 mm
01:10 AM 60.8°F16.0°C 58.2°F14.6°C 91% 4.2 mph N6.8 kmh N 12.1 mph19.5 kmh 29.68 in1005.1 mb 0.00 in0.0 mm 0.00 in/hr0.0 mm/hr 0.00 in0.0 mm
01:05 AM 60.8°F16.0°C 58.2°F14.6°C 91% 5.3 mph N8.5 kmh N 13.0 mph20.9 kmh 29.68 in1005.1 mb 0.00 in0.0 mm 0.00 in/hr0.0 mm/hr 0.00 in0.0 mm
01:00 AM 60.8°F16.0°C 58.2°F14.6°C 91% 7.8 mph N12.6 kmh N 15.2 mph24.5 kmh 29.68 in1005.1 mb 0.00 in0.0 mm 0.00 in/hr0.0 mm/hr 0.00 in0.0 mm
12:55 AM 60.6°F15.9°C 58.0°F14.4°C 91% 7.5 mph N12.1 kmh N 15.2 mph24.5 kmh 29.68 in1005.1 mb 0.00 in0.0 mm 0.00 in/hr0.0 mm/hr 0.00 in0.0 mm
12:50 AM 60.8°F16.0°C 58.2°F14.6°C 91% 6.2 mph N10.0 kmh N 15.2 mph24.5 kmh 29.67 in1004.7 mb 0.00 in0.0 mm 0.00 in/hr0.0 mm/hr 0.00 in0.0 mm
12:45 AM 60.6°F15.9°C 58.0°F14.4°C 91% 5.3 mph N8.5 kmh N 9.2 mph14.8 kmh 29.67 in1004.7 mb 0.00 in0.0 mm 0.00 in/hr0.0 mm/hr 0.00 in0.0 mm
12:40 AM 60.8°F16.0°C 58.2°F14.6°C 91% 6.5 mph N10.5 kmh N 14.5 mph23.3 kmh 29.66 in1004.4 mb 0.00 in0.0 mm 0.00 in/hr0.0 mm/hr 0.00 in0.0 mm
12:35 AM 60.8°F16.0°C 58.5°F14.7°C 92% 6.3 mph N10.1 kmh N 14.5 mph23.3 kmh 29.66 in1004.4 mb 0.00 in0.0 mm 0.00 in/hr0.0 mm/hr 0.00 in0.0 mm
12:30 AM 60.8°F16.0°C 58.8°F14.9°C 93% 6.8 mph NNE10.9 kmh NNE 13.0 mph20.9 kmh 29.66 in1004.4 mb 0.00 in0.0 mm 0.00 in/hr0.0 mm/hr 0.00 in0.0 mm
12:25 AM 60.8°F16.0°C 58.8°F14.9°C 93% 8.6 mph NNE13.8 kmh NNE 13.0 mph20.9 kmh 29.66 in1004.4 mb 0.00 in0.0 mm 0.00 in/hr0.0 mm/hr 0.00 in0.0 mm
12:20 AM 60.8°F16.0°C 58.8°F14.9°C 93% 7.4 mph NNE11.9 kmh NNE 10.7 mph17.2 kmh 29.66 in1004.4 mb 0.00 in0.0 mm 0.00 in/hr0.0 mm/hr 0.00 in0.0 mm
12:15 AM 60.8°F16.0°C 58.8°F14.9°C 93% 6.9 mph NNE11.1 kmh NNE 10.7 mph17.2 kmh 29.66 in1004.4 mb 0.00 in0.0 mm 0.00 in/hr0.0 mm/hr 0.00 in0.0 mm
12:10 AM 60.8°F16.0°C 58.8°F14.9°C 93% 6.7 mph N10.8 kmh N 9.8 mph15.8 kmh 29.66 in1004.4 mb 0.00 in0.0 mm 0.00 in/hr0.0 mm/hr 0.00 in0.0 mm
12:05 AM 61.0°F16.1°C 59.0°F15.0°C 93% 6.8 mph N10.9 kmh N 9.8 mph15.8 kmh 29.66 in1004.4 mb 0.00 in0.0 mm 0.00 in/hr0.0 mm/hr 0.00 in0.0 mm
12:00 AM 61.0°F16.1°C 59.0°F15.0°C 93% 7.4 mph N11.9 kmh N 9.8 mph15.8 kmh 29.67 in1004.7 mb 0.00 in0.0 mm 0.00 in/hr0.0 mm/hr 0.00 in0.0 mm